createdAt,value
2018-05-29T00:00:23.858Z,8.53
2018-05-29T00:02:51.559Z,8.03
2018-05-29T00:05:19.983Z,9.50
2018-05-29T00:07:47.685Z,9.20
2018-05-29T00:10:15.344Z,8.57
2018-05-29T00:12:43.042Z,7.80
2018-05-29T00:15:11.461Z,7.87
2018-05-29T00:17:39.163Z,8.20
2018-05-29T00:20:06.820Z,7.10
2018-05-29T00:22:34.476Z,8.03
2018-05-29T00:25:02.179Z,7.90
2018-05-29T00:27:29.826Z,8.37
2018-05-29T00:29:58.291Z,8.60
2018-05-29T00:32:26.721Z,8.53
2018-05-29T00:34:54.429Z,8.00
2018-05-29T00:37:22.084Z,6.97
2018-05-29T00:39:49.748Z,7.20
2018-05-29T00:42:17.444Z,7.57
2018-05-29T00:44:45.096Z,6.73
2018-05-29T00:47:13.559Z,6.63
2018-05-29T00:49:41.987Z,6.93
2018-05-29T00:52:09.699Z,7.00
2018-05-29T00:54:37.350Z,8.10
2018-05-29T00:57:05.048Z,7.80
2018-05-29T00:59:33.468Z,7.07
2018-05-29T01:02:01.179Z,7.63
2018-05-29T01:04:29.604Z,7.33
2018-05-29T01:06:57.291Z,7.40
2018-05-29T01:09:24.992Z,7.27
2018-05-29T01:11:53.438Z,6.70
2018-05-29T01:14:21.139Z,6.87
2018-05-29T01:16:49.551Z,6.50
2018-05-29T01:19:17.241Z,5.93
2018-05-29T01:21:44.916Z,7.10
2018-05-29T01:24:13.379Z,6.63
2018-05-29T01:26:41.060Z,6.50
2018-05-29T01:29:09.525Z,6.10
2018-05-29T01:31:37.179Z,6.27
2018-05-29T01:34:05.657Z,6.13
2018-05-29T01:36:33.311Z,5.80
2018-05-29T01:39:00.963Z,6.93
2018-05-29T01:41:28.666Z,6.80
2018-05-29T01:43:56.322Z,6.37
2018-05-29T01:46:24.039Z,5.80
2018-05-29T01:48:51.688Z,5.80
2018-05-29T01:51:19.388Z,6.27
2018-05-29T01:53:47.044Z,5.63
2018-05-29T01:56:14.740Z,7.23
2018-05-29T01:58:42.443Z,6.40
2018-05-29T02:01:10.135Z,6.13
2018-05-29T02:03:37.799Z,6.33
2018-05-29T02:06:05.491Z,6.70
2018-05-29T02:08:33.188Z,6.23
2018-05-29T02:11:00.852Z,6.33
2018-05-29T02:13:28.552Z,6.33
2018-05-29T02:15:56.263Z,6.47
2018-05-29T02:18:23.912Z,6.70
2018-05-29T02:20:52.326Z,6.40
2018-05-29T02:23:20.019Z,6.33
2018-05-29T02:25:47.676Z,6.73
2018-05-29T02:28:15.380Z,6.57
2018-05-29T02:30:43.806Z,6.93
2018-05-29T02:33:11.511Z,6.23
2018-05-29T02:35:39.935Z,6.83
2018-05-29T02:38:07.652Z,5.83
2018-05-29T02:40:36.081Z,6.60
2018-05-29T02:43:03.783Z,6.20
2018-05-29T02:45:31.443Z,6.17
2018-05-29T02:47:59.158Z,6.43
2018-05-29T02:50:26.818Z,6.10
2018-05-29T02:52:54.491Z,6.40
2018-05-29T02:55:22.188Z,7.07
2018-05-29T02:57:49.868Z,6.50
2018-05-29T03:00:18.337Z,6.40
2018-05-29T03:02:46.000Z,6.53
2018-05-29T03:05:13.705Z,6.63
2018-05-29T03:07:41.380Z,6.70
2018-05-29T03:10:09.084Z,6.33
2018-05-29T03:12:36.755Z,6.70
2018-05-29T03:15:04.449Z,7.83
2018-05-29T03:17:32.101Z,6.03
2018-05-29T03:20:00.572Z,6.57
2018-05-29T03:22:28.987Z,6.03
2018-05-29T03:24:56.643Z,6.80
2018-05-29T03:27:24.345Z,6.43
2018-05-29T03:29:52.044Z,6.50
2018-05-29T03:32:20.501Z,6.30
2018-05-29T03:34:48.195Z,5.90
2018-05-29T03:37:16.662Z,6.40
2018-05-29T03:39:45.081Z,6.90
2018-05-29T03:42:12.784Z,6.20
2018-05-29T03:44:40.442Z,6.67
2018-05-29T03:47:08.138Z,7.03
2018-05-29T03:49:36.572Z,6.60
2018-05-29T03:52:04.292Z,6.70
2018-05-29T03:54:31.949Z,6.00
2018-05-29T03:56:59.615Z,5.93
2018-05-29T03:59:27.305Z,6.90
2018-05-29T04:01:54.995Z,6.60
2018-05-29T04:04:22.648Z,6.80
2018-05-29T04:06:50.342Z,6.00
2018-05-29T04:09:18.852Z,6.70
2018-05-29T04:11:46.504Z,6.30
2018-05-29T04:14:15.063Z,6.87
2018-05-29T04:16:43.479Z,6.53
2018-05-29T04:19:11.131Z,6.70
2018-05-29T04:21:38.826Z,6.43
2018-05-29T04:24:06.476Z,6.10
2018-05-29T04:26:34.179Z,6.07
2018-05-29T04:29:01.845Z,6.07
2018-05-29T04:31:29.499Z,6.03
2018-05-29T04:33:57.198Z,5.93
2018-05-29T04:36:24.847Z,6.00
2018-05-29T04:38:53.312Z,6.20
2018-05-29T04:41:21.778Z,6.03
2018-05-29T04:43:49.443Z,5.83
2018-05-29T04:46:17.131Z,5.70
2018-05-29T04:48:45.653Z,5.83
2018-05-29T04:51:13.356Z,5.80
2018-05-29T04:53:41.009Z,7.07
2018-05-29T04:56:08.720Z,5.90
2018-05-29T04:58:36.413Z,6.10
2018-05-29T05:01:04.076Z,6.20
2018-05-29T05:03:32.540Z,6.03
2018-05-29T05:06:00.195Z,5.60
2018-05-29T05:08:27.903Z,6.90
2018-05-29T05:10:55.559Z,6.57
2018-05-29T05:13:23.255Z,6.53
2018-05-29T05:15:51.677Z,5.30
2018-05-29T05:18:19.366Z,5.63
2018-05-29T05:20:47.064Z,5.90
2018-05-29T05:23:14.758Z,5.97
2018-05-29T05:25:42.415Z,6.37
2018-05-29T05:28:10.127Z,5.77
2018-05-29T05:30:37.843Z,5.50
2018-05-29T05:33:05.542Z,5.73
2018-05-29T05:35:33.187Z,6.00
2018-05-29T05:38:00.894Z,6.60
2018-05-29T05:40:29.318Z,5.83
2018-05-29T05:42:56.971Z,6.07
2018-05-29T05:45:24.669Z,6.17
2018-05-29T05:47:52.324Z,5.70
2018-05-29T05:50:20.049Z,6.37
2018-05-29T05:52:47.714Z,5.87
2018-05-29T05:55:15.430Z,5.70
2018-05-29T05:57:43.081Z,5.63
2018-05-29T06:00:10.754Z,5.73
2018-05-29T06:02:39.223Z,6.37
2018-05-29T06:05:06.942Z,5.80
2018-05-29T06:07:34.741Z,6.33
2018-05-29T06:10:02.416Z,6.70
2018-05-29T06:12:30.107Z,6.93
2018-05-29T06:14:58.527Z,5.60
2018-05-29T06:17:26.231Z,5.07
2018-05-29T06:19:54.655Z,5.40
2018-05-29T06:22:22.352Z,5.60
2018-05-29T06:24:50.013Z,6.03
2018-05-29T06:27:17.724Z,5.33
2018-05-29T06:29:45.379Z,5.37
2018-05-29T06:32:13.101Z,4.80
2018-05-29T06:34:40.760Z,5.63
2018-05-29T06:37:08.405Z,5.73
2018-05-29T06:39:36.114Z,5.63
2018-05-29T06:42:04.560Z,5.47
2018-05-29T06:44:32.248Z,4.87
2018-05-29T06:47:00.676Z,5.00
2018-05-29T06:49:28.405Z,5.03
2018-05-29T06:51:56.875Z,5.10
2018-05-29T06:54:25.339Z,4.75
2018-05-29T06:56:53.008Z,5.80
2018-05-29T06:59:20.735Z,4.70
2018-05-29T07:01:48.402Z,4.87
2018-05-29T07:04:16.096Z,5.07
2018-05-29T07:06:44.539Z,4.90
2018-05-29T07:09:33.042Z,4.62
2018-05-29T07:12:01.464Z,4.60
2018-05-29T07:14:29.174Z,4.60
2018-05-29T07:16:57.599Z,5.12
2018-05-29T07:19:25.265Z,3.90
2018-05-29T07:21:52.989Z,4.78
2018-05-29T07:24:21.410Z,4.00
2018-05-29T07:26:49.118Z,4.30
2018-05-29T07:29:16.776Z,3.70
2018-05-29T07:31:44.477Z,3.83
2018-05-29T07:34:12.130Z,3.62
2018-05-29T07:36:39.821Z,3.80
2018-05-29T07:39:07.483Z,3.85
2018-05-29T07:41:35.192Z,3.87
2018-05-29T07:44:03.665Z,3.60
2018-05-29T07:46:31.382Z,2.70
2018-05-29T07:48:59.043Z,3.65
2018-05-29T07:51:26.707Z,3.50
2018-05-29T07:53:54.452Z,3.40
2018-05-29T07:56:22.134Z,3.40
2018-05-29T07:58:49.848Z,3.17
2018-05-29T08:01:17.574Z,2.70
2018-05-29T08:03:45.271Z,2.97
2018-05-29T08:06:14.467Z,3.20
2018-05-29T08:08:42.170Z,2.87
2018-05-29T08:11:09.827Z,2.50
2018-05-29T08:13:37.540Z,2.90
2018-05-29T08:16:05.219Z,2.60
2018-05-29T08:18:32.923Z,2.10
2018-05-29T08:21:00.613Z,2.92
2018-05-29T08:23:28.272Z,3.03
2018-05-29T08:25:55.987Z,3.05
2018-05-29T08:28:24.728Z,3.08
2018-05-29T08:30:52.919Z,2.92
2018-05-29T08:33:21.209Z,3.12
2018-05-29T08:35:49.680Z,2.87
2018-05-29T08:38:17.368Z,2.30
2018-05-29T08:40:45.084Z,2.67
2018-05-29T08:43:12.755Z,2.92
2018-05-29T08:45:45.441Z,3.20
2018-05-29T08:48:13.173Z,2.90
2018-05-29T08:50:41.832Z,3.25
2018-05-29T08:53:09.615Z,3.00
2018-05-29T08:55:37.292Z,2.78
2018-05-29T08:58:05.784Z,3.25
2018-05-29T09:00:33.452Z,3.05
2018-05-29T09:03:01.207Z,2.25
2018-05-29T09:05:28.885Z,2.80
2018-05-29T09:07:56.549Z,2.80
2018-05-29T09:10:24.260Z,2.58
2018-05-29T09:12:52.479Z,2.90
2018-05-29T09:15:20.739Z,3.15
2018-05-29T09:17:48.405Z,3.05
2018-05-29T09:20:16.120Z,2.97
2018-05-29T09:22:43.804Z,2.70
2018-05-29T09:25:11.500Z,2.33
2018-05-29T09:27:39.250Z,3.22
2018-05-29T09:30:06.905Z,2.80
2018-05-29T09:32:34.583Z,2.95
2018-05-29T09:35:02.311Z,3.28
2018-05-29T09:37:30.034Z,2.78
2018-05-29T09:39:57.754Z,3.03
2018-05-29T09:42:25.413Z,3.25
2018-05-29T09:44:53.171Z,3.45
2018-05-29T09:47:21.551Z,2.72
2018-05-29T09:49:49.307Z,3.42
2018-05-29T09:52:16.979Z,2.90
2018-05-29T09:54:44.713Z,2.92
2018-05-29T09:57:13.145Z,2.87
2018-05-29T09:59:40.834Z,3.47
2018-05-29T10:02:09.311Z,3.03
2018-05-29T10:04:37.064Z,2.97
2018-05-29T10:07:04.821Z,2.90
2018-05-29T10:09:32.503Z,2.65
2018-05-29T10:12:00.972Z,2.80
2018-05-29T10:14:28.640Z,3.67
2018-05-29T10:16:56.361Z,2.80
2018-05-29T10:19:24.074Z,3.17
2018-05-29T10:21:52.674Z,2.87
2018-05-29T10:24:20.690Z,3.25
2018-05-29T10:26:48.358Z,3.03
2018-05-29T10:29:16.078Z,3.70
2018-05-29T10:31:43.788Z,3.15
2018-05-29T10:34:11.505Z,3.33
2018-05-29T10:36:39.189Z,3.12
2018-05-29T10:39:06.923Z,3.53
2018-05-29T10:41:34.646Z,3.22
2018-05-29T10:44:02.361Z,4.25
2018-05-29T10:46:30.076Z,3.75
2018-05-29T10:48:57.886Z,3.58
2018-05-29T10:51:25.589Z,4.00
2018-05-29T10:53:53.244Z,4.18
2018-05-29T10:56:21.675Z,3.72
2018-05-29T10:58:49.352Z,3.90
2018-05-29T11:01:17.068Z,3.90
2018-05-29T11:03:44.732Z,3.95
2018-05-29T11:06:12.461Z,4.22
2018-05-29T11:08:40.143Z,4.00
2018-05-29T11:11:07.848Z,4.22
2018-05-29T11:13:35.560Z,4.25
2018-05-29T11:16:03.232Z,4.47
2018-05-29T11:18:30.992Z,4.82
2018-05-29T11:20:58.662Z,4.00
2018-05-29T11:23:26.367Z,4.22
2018-05-29T11:25:54.104Z,4.12
2018-05-29T11:28:22.807Z,4.75
2018-05-29T11:30:51.728Z,4.60
2018-05-29T11:33:19.453Z,4.68
2018-05-29T11:35:47.895Z,4.15
2018-05-29T11:38:15.602Z,5.72
2018-05-29T11:40:44.030Z,4.25
2018-05-29T11:43:11.756Z,4.65
2018-05-29T11:45:39.424Z,4.50
2018-05-29T11:48:07.120Z,4.82
2018-05-29T11:50:34.835Z,4.80
2018-05-29T11:53:03.255Z,4.18
2018-05-29T11:55:30.981Z,4.80
2018-05-29T11:57:59.418Z,4.30
2018-05-29T12:00:27.098Z,5.10
2018-05-29T12:02:54.809Z,4.80
2018-05-29T12:05:22.862Z,4.78
2018-05-29T12:07:51.680Z,4.75
2018-05-29T12:10:19.407Z,4.60
2018-05-29T12:12:47.134Z,4.90
2018-05-29T12:15:17.141Z,4.22
2018-05-29T12:17:45.214Z,4.93
2018-05-29T12:20:12.960Z,5.12
2018-05-29T12:22:40.627Z,4.22
2018-05-29T12:25:08.358Z,4.62
2018-05-29T12:27:36.061Z,4.30
2018-05-29T12:30:03.724Z,4.47
2018-05-29T12:32:31.447Z,4.28
2018-05-29T12:34:59.141Z,4.70
2018-05-29T12:37:26.878Z,4.10
2018-05-29T12:39:54.564Z,4.85
2018-05-29T12:42:23.201Z,4.65
2018-05-29T12:44:52.203Z,4.05
2018-05-29T12:47:19.919Z,4.53
2018-05-29T12:49:47.605Z,4.80
2018-05-29T12:52:16.099Z,4.32
2018-05-29T12:54:43.812Z,4.68
2018-05-29T12:57:11.517Z,4.05
2018-05-29T12:59:39.961Z,4.12
2018-05-29T13:02:08.708Z,4.37
2018-05-29T13:04:36.415Z,4.60
2018-05-29T13:07:04.121Z,4.47
2018-05-29T13:09:32.620Z,4.43
2018-05-29T13:12:00.316Z,4.47
2018-05-29T13:14:28.069Z,4.53
2018-05-29T13:16:56.561Z,4.37
2018-05-29T13:19:24.290Z,5.10
2018-05-29T13:21:52.155Z,4.55
2018-05-29T13:24:19.882Z,4.50
2018-05-29T13:26:47.572Z,4.43
2018-05-29T13:29:15.316Z,4.28
2018-05-29T13:31:43.785Z,4.75
2018-05-29T13:34:11.508Z,4.72
2018-05-29T13:36:39.169Z,4.37
2018-05-29T13:39:06.903Z,4.75
2018-05-29T13:41:34.621Z,4.50
2018-05-29T13:44:02.380Z,4.78
2018-05-29T13:46:30.053Z,3.90
2018-05-29T13:48:57.731Z,4.20
2018-05-29T13:51:26.219Z,5.00
2018-05-29T13:53:54.666Z,4.22
2018-05-29T13:56:23.053Z,4.50
2018-05-29T13:58:51.360Z,4.47
2018-05-29T14:01:19.138Z,4.62
2018-05-29T14:03:46.864Z,4.05
2018-05-29T14:06:16.620Z,4.20
2018-05-29T14:08:44.303Z,4.37
2018-05-29T14:11:12.064Z,4.45
2018-05-29T14:13:39.796Z,4.05
2018-05-29T14:16:08.261Z,3.67
2018-05-29T14:18:36.729Z,4.68
2018-05-29T14:21:04.472Z,4.40
2018-05-29T14:23:32.192Z,3.78
2018-05-29T14:25:59.888Z,4.47
2018-05-29T14:28:27.650Z,4.10
2018-05-29T14:30:55.319Z,3.33
2018-05-29T14:33:23.041Z,3.90
2018-05-29T14:35:51.366Z,4.00
2018-05-29T14:38:19.074Z,3.90
2018-05-29T14:40:46.788Z,3.92
2018-05-29T14:43:15.516Z,4.28
2018-05-29T14:45:44.100Z,3.97
2018-05-29T14:48:11.871Z,4.28
2018-05-29T14:50:40.301Z,4.62
2018-05-29T14:53:08.009Z,4.28
2018-05-29T14:55:35.735Z,4.43
2018-05-29T14:58:03.401Z,4.32
2018-05-29T15:00:31.125Z,4.37
2018-05-29T15:02:58.799Z,4.03
2018-05-29T15:05:26.540Z,4.18
2018-05-29T15:07:54.244Z,4.10
2018-05-29T15:10:22.056Z,4.57
2018-05-29T15:12:49.745Z,3.78
2018-05-29T15:15:17.476Z,4.75
2018-05-29T15:17:45.907Z,4.68
2018-05-29T15:20:13.638Z,4.53
2018-05-29T15:22:41.339Z,4.70
2018-05-29T15:25:10.280Z,4.62
2018-05-29T15:27:37.996Z,4.43
2018-05-29T15:30:05.678Z,3.95
2018-05-29T15:32:33.400Z,4.32
2018-05-29T15:35:01.145Z,3.95
2018-05-29T15:37:28.875Z,4.18
2018-05-29T15:39:57.371Z,4.22
2018-05-29T15:42:25.070Z,4.18
2018-05-29T15:44:52.952Z,4.40
2018-05-29T15:47:21.294Z,4.62
2018-05-29T15:49:49.008Z,4.32
2018-05-29T15:52:16.781Z,4.53
2018-05-29T15:54:44.503Z,4.60
2018-05-29T15:57:12.217Z,4.82
2018-05-29T15:59:40.716Z,4.30
2018-05-29T16:02:09.702Z,4.37
2018-05-29T16:04:38.405Z,5.10
2018-05-29T16:07:06.117Z,5.40
2018-05-29T16:09:33.810Z,4.15
2018-05-29T16:12:02.413Z,4.15
2018-05-29T16:14:30.161Z,4.70
2018-05-29T16:16:57.874Z,4.50
2018-05-29T16:19:26.351Z,4.30
2018-05-29T16:21:54.071Z,4.65
2018-05-29T16:24:22.509Z,5.15
2018-05-29T16:26:50.816Z,4.22
2018-05-29T16:29:18.603Z,4.60
2018-05-29T16:31:46.268Z,4.68
2018-05-29T16:34:13.987Z,4.00
2018-05-29T16:36:41.707Z,4.85
2018-05-29T16:39:09.436Z,4.05
2018-05-29T16:41:37.878Z,4.50
2018-05-29T16:44:05.602Z,4.93
2018-05-29T16:46:33.285Z,4.43
2018-05-29T16:49:01.028Z,4.50
2018-05-29T16:51:28.822Z,4.37
2018-05-29T16:53:56.544Z,3.87
2018-05-29T16:56:24.336Z,3.95
2018-05-29T16:58:52.274Z,3.35
2018-05-29T17:01:21.019Z,4.28
2018-05-29T17:03:48.893Z,3.22
2018-05-29T17:06:24.433Z,3.53
2018-05-29T17:08:52.883Z,3.40
2018-05-29T17:11:21.213Z,3.33
2018-05-29T17:13:49.691Z,3.72
2018-05-29T17:16:18.120Z,3.50
2018-05-29T17:18:45.818Z,3.47
2018-05-29T17:21:13.473Z,3.17
2018-05-29T17:23:41.176Z,2.97
2018-05-29T17:26:09.599Z,3.08
2018-05-29T17:28:37.312Z,2.80
2018-05-29T17:31:05.731Z,3.00
2018-05-29T17:33:33.445Z,2.97
2018-05-29T17:36:01.882Z,3.05
2018-05-29T17:38:29.549Z,3.22
2018-05-29T17:40:58.017Z,3.30
2018-05-29T17:43:25.672Z,2.87
2018-05-29T17:45:53.372Z,2.58
2018-05-29T17:48:22.428Z,2.97
2018-05-29T17:50:50.830Z,3.17
2018-05-29T17:53:19.257Z,2.58
2018-05-29T17:55:47.734Z,2.60
2018-05-29T17:58:16.207Z,3.25
2018-05-29T18:00:44.627Z,2.55
2018-05-29T18:03:12.331Z,2.85
2018-05-29T18:05:39.987Z,2.90
2018-05-29T18:08:07.709Z,2.72
2018-05-29T18:10:35.367Z,2.80
2018-05-29T18:13:03.069Z,2.83
2018-05-29T18:15:30.739Z,2.50
2018-05-29T18:17:58.445Z,2.47
2018-05-29T18:20:26.167Z,3.00
2018-05-29T18:22:53.831Z,2.50
2018-05-29T18:25:21.495Z,2.47
2018-05-29T18:27:49.227Z,2.50
2018-05-29T18:30:16.924Z,2.65
2018-05-29T18:32:44.644Z,3.35
2018-05-29T18:35:12.407Z,2.97
2018-05-29T18:37:40.071Z,2.92
2018-05-29T18:40:07.781Z,2.87
2018-05-29T18:42:36.207Z,3.00
2018-05-29T18:45:03.916Z,2.33
2018-05-29T18:47:31.631Z,2.20
2018-05-29T18:49:59.401Z,2.62
2018-05-29T18:52:27.097Z,2.30
2018-05-29T18:54:54.750Z,2.75
2018-05-29T18:57:23.413Z,2.60
2018-05-29T18:59:51.878Z,2.87
2018-05-29T19:02:19.551Z,2.50
2018-05-29T19:04:47.256Z,2.42
2018-05-29T19:07:14.924Z,2.60
2018-05-29T19:09:42.623Z,2.37
2018-05-29T19:12:10.283Z,2.55
2018-05-29T19:14:38.000Z,2.50
2018-05-29T19:17:05.738Z,2.30
2018-05-29T19:19:33.440Z,2.62
2018-05-29T19:22:01.872Z,2.40
2018-05-29T19:24:29.566Z,2.87
2018-05-29T19:26:57.230Z,2.10
2018-05-29T19:29:24.940Z,2.40
2018-05-29T19:31:52.629Z,2.75
2018-05-29T19:34:20.810Z,2.25
2018-05-29T19:36:48.484Z,2.30
2018-05-29T19:39:16.183Z,2.67
2018-05-29T19:41:44.616Z,2.58
2018-05-29T19:44:12.327Z,2.55
2018-05-29T19:46:39.992Z,2.50
2018-05-29T19:49:07.655Z,3.13
2018-05-29T19:51:35.362Z,3.00
2018-05-29T19:54:03.872Z,2.42
2018-05-29T19:56:31.587Z,2.17
2018-05-29T19:58:59.248Z,2.35
2018-05-29T20:01:26.911Z,2.17
2018-05-29T20:03:54.613Z,2.40
2018-05-29T20:06:23.488Z,2.60
2018-05-29T20:08:52.188Z,2.22
2018-05-29T20:11:19.843Z,2.50
2018-05-29T20:13:47.495Z,2.60
2018-05-29T20:16:15.191Z,2.10
2018-05-29T20:18:43.617Z,2.20
2018-05-29T20:21:11.315Z,3.27
2018-05-29T20:23:38.988Z,2.90
2018-05-29T20:26:07.186Z,2.60
2018-05-29T20:28:35.604Z,3.00
2018-05-29T20:31:03.308Z,2.20
2018-05-29T20:33:31.750Z,3.07
2018-05-29T20:35:59.447Z,2.67
2018-05-29T20:38:27.103Z,2.43
2018-05-29T20:40:54.841Z,2.53
2018-05-29T20:43:23.493Z,2.60
2018-05-29T20:45:52.229Z,2.97
2018-05-29T20:48:20.896Z,2.83
2018-05-29T20:50:48.553Z,2.40
2018-05-29T20:53:16.567Z,2.20
2018-05-29T20:55:45.002Z,2.60
2018-05-29T20:58:12.663Z,2.87
2018-05-29T21:00:40.372Z,2.80
2018-05-29T21:03:08.797Z,2.60
2018-05-29T21:05:36.499Z,2.87
2018-05-29T21:08:04.169Z,2.67
2018-05-29T21:10:31.867Z,2.50
2018-05-29T21:12:59.536Z,2.40
2018-05-29T21:15:28.308Z,3.07
2018-05-29T21:17:56.605Z,2.60
2018-05-29T21:20:24.302Z,2.87
2018-05-29T21:22:51.961Z,2.83
2018-05-29T21:25:19.668Z,2.20
2018-05-29T21:27:47.334Z,2.60
2018-05-29T21:30:15.043Z,2.70
2018-05-29T21:32:42.763Z,2.80
2018-05-29T21:35:10.480Z,2.60
2018-05-29T21:37:38.155Z,2.87
2018-05-29T21:40:05.817Z,2.60
2018-05-29T21:42:33.515Z,2.77
2018-05-29T21:45:01.178Z,2.57
2018-05-29T21:47:28.879Z,3.17
2018-05-29T21:49:56.535Z,2.67
2018-05-29T21:52:24.247Z,2.90
2018-05-29T21:54:52.663Z,3.13
2018-05-29T21:57:20.327Z,3.73
2018-05-29T21:59:48.064Z,3.07
2018-05-29T22:02:15.715Z,4.37
2018-05-29T22:04:44.177Z,2.73
2018-05-29T22:07:12.610Z,3.63
2018-05-29T22:09:40.311Z,3.70
2018-05-29T22:12:07.992Z,2.63
2018-05-29T22:14:36.459Z,3.17
2018-05-29T22:17:04.180Z,3.00
2018-05-29T22:19:31.883Z,3.30
2018-05-29T22:21:59.552Z,3.27
2018-05-29T22:24:28.103Z,3.00
2018-05-29T22:26:55.760Z,2.77
2018-05-29T22:29:23.454Z,2.97
2018-05-29T22:31:51.123Z,2.90
2018-05-29T22:34:19.590Z,2.97
2018-05-29T22:36:47.250Z,3.03
2018-05-29T22:39:14.937Z,2.67
2018-05-29T22:41:43.351Z,3.43
2018-05-29T22:44:11.049Z,3.30
2018-05-29T22:46:38.700Z,2.70
2018-05-29T22:49:06.399Z,3.10
2018-05-29T22:51:34.816Z,2.93
2018-05-29T22:54:02.531Z,2.90
2018-05-29T22:56:30.244Z,3.23
2018-05-29T22:58:57.904Z,3.30
2018-05-29T23:01:25.615Z,3.10
2018-05-29T23:03:54.052Z,2.80
2018-05-29T23:06:21.771Z,3.20
2018-05-29T23:08:50.200Z,3.40
2018-05-29T23:11:17.905Z,3.50
2018-05-29T23:13:46.331Z,3.40
2018-05-29T23:16:14.054Z,3.43
2018-05-29T23:18:42.475Z,3.00
2018-05-29T23:21:10.185Z,3.50
2018-05-29T23:23:37.878Z,3.30
2018-05-29T23:26:05.688Z,3.40
2018-05-29T23:28:34.109Z,3.00
2018-05-29T23:31:02.577Z,3.53
2018-05-29T23:33:31.005Z,2.80
2018-05-29T23:35:58.659Z,3.00
2018-05-29T23:38:26.359Z,2.80
2018-05-29T23:40:54.027Z,3.53
2018-05-29T23:43:21.724Z,3.10
2018-05-29T23:45:49.384Z,2.50
2018-05-29T23:48:17.439Z,3.47
2018-05-29T23:50:45.866Z,3.80
2018-05-29T23:53:14.408Z,3.43
2018-05-29T23:55:42.828Z,3.03
2018-05-29T23:58:10.535Z,3.70
